Weather at Chatham Municipal Airport

Public forecast

Using degrees Fahrenheit for public forecast. Weather courtesy of forecast.io.

Current aviation weather report (METAR) for Chatham Municipal Airport

Retrieved 2020/09/29 19:52 UTC (44 minutes ago):

KCQX 291952Z AUTO 22005KT 10SM CLR 22/19 A2991 RMK AO2 SLP130 T02220189

Closest aviation forecast (TAF) to Chatham Municipal Airport

Closest forecast is Barnstable Municipal Boardman Polando Field, 13.1 nm (24.3 km) W. Retrieved 2020/09/29 18:30 UTC (2 hours ago):

TAF KHYA 291729Z 2918/3018 19006KT P6SM SCT004 FM292100 17008KT 1/2SM FG OVC003 FM300300 17009KT 3SM BR OVC008 FM300700 17015G25KT 2SM BR VCSH OVC008 WS020/19045KT FM301400 20019G35KT 5SM -RA BR OVC010 WS020/20060KT